Time;durP1;ratioP1;P1;durP2;ratioP2;P2;SDS_P1;SDS_P2;PMS_P1;PMS_P2;Temp;Humidity;BMP_temperature;BMP_pressure;BME280_temperature;BME280_humidity;BME280_pressure;Samples;Min_cycle;Max_cycle;Signal;HPM_P1;HPM_P2
2020/12/03 00:00:34;;;;;;;50.43;16.93;;;-2.70;99.90;;;;;;4903759;29;20271;-65
2020/12/03 00:03:06;;;;;;;50.13;18.57;;;-2.70;99.90;;;;;;4907021;29;20202;-66
2020/12/03 00:05:33;;;;;;;54.67;21.27;;;-2.80;99.90;;;;;;4918131;29;20608;-66
2020/12/03 00:08:01;;;;;;;60.50;22.67;;;-2.80;99.90;;;;;;4915616;29;20218;-66
2020/12/03 00:10:28;;;;;;;52.27;20.53;;;-2.90;99.90;;;;;;4930622;29;20251;-66
2020/12/03 00:13:06;;;;;;;58.87;20.70;;;-2.90;99.90;;;;;;4947241;28;20204;-66
2020/12/03 00:15:33;;;;;;;54.00;20.63;;;-3.00;99.90;;;;;;4929799;29;20216;-66
2020/12/03 00:17:59;;;;;;;52.93;19.80;;;-3.00;99.90;;;;;;4929839;29;20210;-66
2020/12/03 00:20:27;;;;;;;45.70;16.87;;;-3.00;99.90;;;;;;4932091;29;20217;-66
2020/12/03 00:22:54;;;;;;;46.50;17.97;;;-3.00;99.90;;;;;;4933470;29;20198;-66
2020/12/03 00:25:21;;;;;;;49.73;18.00;;;-2.90;99.90;;;;;;4914497;29;20229;-67
2020/12/03 00:27:50;;;;;;;49.97;18.47;;;-2.90;99.90;;;;;;4933243;29;20229;-66
2020/12/03 00:30:18;;;;;;;73.03;26.83;;;-2.90;99.90;;;;;;4933561;29;20668;-67
2020/12/03 00:32:44;;;;;;;74.27;26.07;;;-2.90;99.90;;;;;;4933215;29;20291;-67
2020/12/03 00:35:13;;;;;;;64.50;24.77;;;-3.00;99.90;;;;;;4932501;29;20735;-67
2020/12/03 00:37:40;;;;;;;71.57;24.13;;;-3.00;99.90;;;;;;4933257;29;20218;-67
2020/12/03 00:40:07;;;;;;;75.13;24.70;;;-3.10;99.90;;;;;;4933698;29;20616;-67
2020/12/03 00:42:35;;;;;;;57.13;20.23;;;-3.20;99.90;;;;;;4933101;29;20672;-67
2020/12/03 00:45:02;;;;;;;52.87;18.87;;;-3.20;99.90;;;;;;4932942;29;20229;-67
2020/12/03 00:47:29;;;;;;;47.60;17.10;;;-3.20;99.90;;;;;;4916208;29;20270;-67
2020/12/03 00:49:56;;;;;;;40.37;16.20;;;-3.10;99.90;;;;;;4919916;29;20732;-65
2020/12/03 00:52:23;;;;;;;54.93;16.53;;;-2.70;99.90;;;;;;4884019;29;20212;-66
2020/12/03 00:54:50;;;;;;;51.53;17.17;;;-2.90;99.90;;;;;;4875671;29;20293;-66
2020/12/03 00:57:18;;;;;;;47.20;17.77;;;-2.90;99.90;;;;;;4910021;29;20203;-66
2020/12/03 00:59:46;;;;;;;57.87;19.93;;;-2.90;99.90;;;;;;4927519;29;20403;-66
2020/12/03 01:02:15;;;;;;;57.53;19.33;;;-2.90;99.90;;;;;;4931513;29;20276;-66
2020/12/03 01:04:42;;;;;;;77.53;22.97;;;-2.90;99.90;;;;;;4926351;29;20297;-66
2020/12/03 01:07:09;;;;;;;88.77;24.00;;;-2.90;99.90;;;;;;4930760;29;20256;-67
2020/12/03 01:09:37;;;;;;;68.20;22.17;;;-2.90;99.90;;;;;;4927020;29;20234;-66
2020/12/03 01:12:06;;;;;;;64.40;20.83;;;-2.90;99.90;;;;;;4924837;29;20211;-66
2020/12/03 01:14:34;;;;;;;49.63;19.70;;;-2.90;99.90;;;;;;4895668;29;20675;-67
2020/12/03 01:17:03;;;;;;;54.70;19.10;;;-2.90;99.90;;;;;;4896018;29;20223;-66
2020/12/03 01:19:29;;;;;;;41.40;15.37;;;-2.90;99.90;;;;;;4876938;29;20211;-66
2020/12/03 01:21:56;;;;;;;49.43;17.60;;;-2.80;99.90;;;;;;4875830;29;20224;-64
2020/12/03 01:24:23;;;;;;;46.13;16.50;;;-2.80;99.90;;;;;;4876504;29;20216;-66
2020/12/03 01:26:50;;;;;;;44.10;15.90;;;-2.70;99.90;;;;;;4877516;29;20326;-66
2020/12/03 01:29:18;;;;;;;40.13;16.20;;;-2.70;99.90;;;;;;4881550;29;20211;-65
2020/12/03 01:31:45;;;;;;;58.60;20.20;;;-2.70;99.90;;;;;;4940420;29;20213;-66
2020/12/03 01:34:13;;;;;;;59.63;20.80;;;-2.70;99.90;;;;;;4945599;29;20210;-66
2020/12/03 01:36:40;;;;;;;61.77;20.37;;;-2.70;99.90;;;;;;4931147;29;20218;-66
2020/12/03 01:39:07;;;;;;;51.70;19.80;;;-2.70;99.90;;;;;;4924736;29;20231;-65
2020/12/03 01:41:35;;;;;;;59.20;20.60;;;-2.70;99.90;;;;;;4941373;29;20205;-65
2020/12/03 01:44:03;;;;;;;58.50;20.13;;;-2.70;99.90;;;;;;4938307;29;20224;-65
2020/12/03 01:46:30;;;;;;;52.10;19.27;;;-2.80;99.90;;;;;;4893775;29;20227;-66
2020/12/03 01:49:02;;;;;;;69.00;22.93;;;-2.80;99.90;;;;;;4895045;29;20215;-66
2020/12/03 01:51:34;;;;;;;62.00;21.20;;;-2.80;99.90;;;;;;4888736;29;20207;-66
2020/12/03 01:54:05;;;;;;;58.47;20.13;;;-2.80;99.90;;;;;;4895505;29;20223;-66
2020/12/03 01:56:59;;;;;;;54.80;20.60;;;-2.90;99.90;;;;;;4894929;29;20318;-67
2020/12/03 01:59:32;;;;;;;68.57;23.03;;;-2.90;99.90;;;;;;4884220;29;20256;-67
2020/12/03 02:01:59;;;;;;;55.47;19.43;;;-2.90;99.90;;;;;;4880068;29;20704;-67
2020/12/03 02:04:27;;;;;;;56.77;19.90;;;-3.00;99.90;;;;;;4887736;29;20254;-67
2020/12/03 02:07:00;;;;;;;59.93;20.67;;;-3.00;99.90;;;;;;4893077;29;20299;-67
2020/12/03 02:09:27;;;;;;;63.87;21.50;;;-3.00;99.90;;;;;;4903318;29;20639;-66
2020/12/03 02:11:54;;;;;;;61.20;20.17;;;-3.00;99.90;;;;;;4911517;29;20214;-66
2020/12/03 02:14:21;;;;;;;57.83;20.23;;;-3.10;99.90;;;;;;4921511;29;20676;-66
2020/12/03 02:16:48;;;;;;;60.83;20.07;;;-2.70;99.90;;;;;;4916198;29;20767;-66
2020/12/03 02:19:18;;;;;;;71.70;24.33;;;-3.10;99.90;;;;;;4935993;29;20220;-66
2020/12/03 02:21:52;;;;;;;81.37;27.37;;;-3.10;99.90;;;;;;4931316;29;20260;-66
2020/12/03 02:24:19;;;;;;;93.07;26.43;;;-3.20;99.90;;;;;;4940524;29;20213;-66
2020/12/03 02:26:50;;;;;;;71.93;24.87;;;-3.30;99.90;;;;;;4880204;29;20231;-65
2020/12/03 02:29:18;;;;;;;64.77;22.43;;;-3.20;99.90;;;;;;4866373;29;20211;-65
2020/12/03 02:31:45;;;;;;;73.47;23.33;;;-3.20;99.90;;;;;;4850593;29;20223;-66
2020/12/03 02:34:12;;;;;;;71.97;22.87;;;-3.20;99.90;;;;;;4894056;29;20211;-66
2020/12/03 02:36:38;;;;;;;66.13;21.50;;;-3.20;99.90;;;;;;4892356;29;20214;-66
2020/12/03 02:39:06;;;;;;;63.97;21.17;;;-3.20;99.90;;;;;;4875398;29;20214;-66
2020/12/03 02:41:33;;;;;;;59.43;20.07;;;-3.20;99.90;;;;;;4856117;29;20217;-66
2020/12/03 02:44:00;;;;;;;54.20;19.03;;;-3.20;99.90;;;;;;4834375;29;20312;-66
2020/12/03 02:46:27;;;;;;;51.33;17.70;;;-3.20;99.90;;;;;;4824181;29;20282;-66
2020/12/03 02:48:54;;;;;;;56.27;18.27;;;-3.20;99.90;;;;;;4839068;29;20204;-66
2020/12/03 02:51:20;;;;;;;58.93;20.27;;;-3.10;99.90;;;;;;4846427;29;20217;-66
2020/12/03 02:53:47;;;;;;;60.37;21.63;;;-3.20;99.90;;;;;;4838741;29;20652;-67
2020/12/03 02:56:15;;;;;;;53.47;19.43;;;-3.20;99.90;;;;;;4838505;29;20734;-66
2020/12/03 02:58:41;;;;;;;55.83;20.17;;;-3.20;99.90;;;;;;4869971;29;20705;-66
2020/12/03 03:01:08;;;;;;;56.57;18.77;;;-3.30;99.90;;;;;;4891024;29;20722;-67
2020/12/03 03:03:35;;;;;;;60.60;20.70;;;-3.30;99.90;;;;;;4856492;29;20568;-66
2020/12/03 03:06:01;;;;;;;65.07;20.37;;;-3.30;99.90;;;;;;4814974;29;20283;-66
2020/12/03 03:08:28;;;;;;;55.17;19.77;;;-3.30;99.90;;;;;;4818153;29;20232;-67
2020/12/03 03:10:55;;;;;;;76.13;23.57;;;-3.30;99.90;;;;;;4812342;29;20215;-67
2020/12/03 03:13:22;;;;;;;74.20;21.33;;;-3.30;99.90;;;;;;4813429;29;20206;-67
2020/12/03 03:15:49;;;;;;;67.63;22.13;;;-3.30;99.90;;;;;;4814356;29;20242;-67
2020/12/03 03:18:16;;;;;;;65.63;22.67;;;-3.30;99.90;;;;;;4804399;29;20649;-67
2020/12/03 03:20:42;;;;;;;58.17;19.60;;;-3.30;99.90;;;;;;4836229;29;20220;-67
2020/12/03 03:23:09;;;;;;;62.80;21.83;;;-3.30;99.90;;;;;;4846803;29;20219;-67
2020/12/03 03:25:36;;;;;;;65.83;21.03;;;-3.30;99.90;;;;;;4837657;29;20228;-67
2020/12/03 03:28:03;;;;;;;59.07;20.10;;;-3.30;99.90;;;;;;4855892;29;20670;-68
2020/12/03 03:30:30;;;;;;;61.93;21.43;;;-3.30;99.90;;;;;;4818777;29;20221;-67
2020/12/03 03:32:57;;;;;;;65.77;21.77;;;-3.40;99.90;;;;;;4849243;29;20209;-68
2020/12/03 03:35:24;;;;;;;68.40;22.00;;;-3.40;99.90;;;;;;4854723;29;20672;-68
2020/12/03 03:37:50;;;;;;;46.63;17.60;;;-3.40;99.90;;;;;;4855685;29;20224;-67
2020/12/03 03:40:17;;;;;;;54.70;19.03;;;-3.40;99.90;;;;;;4865086;29;20209;-67
2020/12/03 03:42:44;;;;;;;55.07;19.77;;;-3.40;99.90;;;;;;4880875;29;20310;-68
2020/12/03 03:45:11;;;;;;;64.20;22.67;;;-3.30;99.90;;;;;;4854979;29;20265;-67
2020/12/03 03:47:40;;;;;;;71.80;24.50;;;-3.40;99.90;;;;;;4855747;29;20244;-68
2020/12/03 03:50:09;;;;;;;73.43;25.67;;;-3.40;99.90;;;;;;4836002;29;20212;-66
2020/12/03 03:52:36;;;;;;;69.83;24.57;;;-3.40;99.90;;;;;;4819953;29;20205;-67
2020/12/03 03:55:04;;;;;;;73.77;25.00;;;-3.40;99.90;;;;;;4837118;29;20212;-67
2020/12/03 03:57:30;;;;;;;59.40;21.07;;;-3.40;99.90;;;;;;4837858;29;20220;-68
2020/12/03 03:59:57;;;;;;;83.47;26.67;;;-3.40;99.90;;;;;;4819361;29;20205;-68
2020/12/03 04:02:24;;;;;;;74.77;26.47;;;-3.40;99.90;;;;;;4862493;29;20216;-67
2020/12/03 04:04:52;;;;;;;92.20;30.33;;;-3.40;99.90;;;;;;4864997;29;20699;-67
2020/12/03 04:07:19;;;;;;;94.10;30.23;;;-3.50;99.90;;;;;;4837155;29;20237;-67
2020/12/03 04:09:47;;;;;;;94.17;30.77;;;-3.50;99.90;;;;;;4837412;29;20228;-67
2020/12/03 04:12:14;;;;;;;97.50;29.10;;;-3.60;99.90;;;;;;4819223;29;20704;-67
2020/12/03 04:14:41;;;;;;;92.17;28.80;;;-3.50;99.90;;;;;;4844197;29;20748;-67
2020/12/03 04:17:08;;;;;;;83.30;26.77;;;-3.60;99.90;;;;;;4837375;29;20337;-67
2020/12/03 04:19:34;;;;;;;82.30;27.23;;;-3.60;99.90;;;;;;4835655;29;20201;-66
2020/12/03 04:22:02;;;;;;;87.57;29.60;;;-3.60;99.90;;;;;;4844188;29;20226;-66
2020/12/03 04:24:29;;;;;;;81.30;27.60;;;-3.60;99.90;;;;;;4850802;29;20592;-67
2020/12/03 04:26:55;;;;;;;73.83;24.60;;;-3.60;99.90;;;;;;4887361;29;20230;-67
2020/12/03 04:29:22;;;;;;;73.07;26.03;;;-3.60;99.90;;;;;;4893898;29;20211;-68
2020/12/03 04:31:49;;;;;;;89.53;29.07;;;-3.60;99.90;;;;;;4893621;29;20234;-67
2020/12/03 04:34:15;;;;;;;77.37;25.50;;;-3.60;99.90;;;;;;4892567;29;20222;-67
2020/12/03 04:36:42;;;;;;;66.83;22.37;;;-3.60;99.90;;;;;;4893496;29;20207;-67
2020/12/03 04:39:10;;;;;;;60.17;21.07;;;-3.60;99.90;;;;;;4894720;29;20216;-67
2020/12/03 04:41:36;;;;;;;62.00;21.83;;;-3.50;99.90;;;;;;4893916;29;20276;-67
2020/12/03 04:44:11;;;;;;;48.67;17.00;;;-3.40;99.90;;;;;;4940236;28;20247;-67
2020/12/03 04:46:43;;;;;;;51.27;18.73;;;-3.40;99.90;;;;;;4951252;28;20730;-68
2020/12/03 04:49:26;;;;;;;52.87;18.73;;;-3.30;99.90;;;;;;4966963;28;20214;-66
2020/12/03 04:52:28;;;;;;;72.33;23.73;;;-3.20;99.90;;;;;;4933473;29;20218;-66
2020/12/03 04:55:13;;;;;;;74.73;24.80;;;-3.20;99.90;;;;;;4949676;29;20204;-67
2020/12/03 04:57:45;;;;;;;74.53;25.07;;;-3.20;99.90;;;;;;4949730;29;20797;-67
2020/12/03 05:00:22;;;;;;;67.07;22.80;;;-3.20;99.90;;;;;;4955552;28;20204;-66
2020/12/03 05:03:26;;;;;;;67.87;23.40;;;-3.20;99.90;;;;;;4968653;28;20220;-67
2020/12/03 05:06:02;;;;;;;79.43;26.43;;;-3.20;99.90;;;;;;4967938;28;20292;-67
2020/12/03 05:08:35;;;;;;;92.03;30.43;;;-3.20;99.90;;;;;;4971457;28;20717;-67
2020/12/03 05:11:07;;;;;;;99.67;32.40;;;-3.20;99.90;;;;;;4969455;28;20216;-66
2020/12/03 05:13:51;;;;;;;78.23;26.77;;;-3.30;99.90;;;;;;4964338;28;20196;-67
2020/12/03 05:16:25;;;;;;;83.43;28.50;;;-3.30;99.90;;;;;;4968175;28;20631;-67
2020/12/03 05:18:54;;;;;;;80.50;26.47;;;-3.30;99.90;;;;;;4969224;28;20211;-67
2020/12/03 05:21:25;;;;;;;98.17;29.97;;;-3.30;99.90;;;;;;4969934;28;20255;-67
2020/12/03 05:23:51;;;;;;;99.90;33.63;;;-3.30;99.90;;;;;;4981917;28;20648;-68
2020/12/03 05:26:23;;;;;;;91.00;29.33;;;-3.30;99.90;;;;;;4975812;28;20228;-67
2020/12/03 05:28:54;;;;;;;80.73;27.87;;;-3.30;99.90;;;;;;4972298;28;20349;-67
2020/12/03 05:31:30;;;;;;;83.20;28.57;;;-3.30;99.90;;;;;;4936941;28;20218;-67
2020/12/03 05:34:08;;;;;;;71.87;24.57;;;-3.30;99.90;;;;;;4926206;29;20220;-67
2020/12/03 05:36:38;;;;;;;67.17;22.57;;;-3.20;99.90;;;;;;4925272;29;20665;-66
2020/12/03 05:39:09;;;;;;;78.23;24.87;;;-3.10;99.90;;;;;;4925888;29;20210;-67
2020/12/03 05:41:45;;;;;;;70.70;23.43;;;-3.00;99.90;;;;;;4928736;29;20253;-67
2020/12/03 05:44:30;;;;;;;77.13;26.60;;;-2.90;99.90;;;;;;4933148;29;20228;-66
2020/12/03 05:46:57;;;;;;;66.73;22.20;;;-2.90;99.90;;;;;;4922980;29;20804;-67
2020/12/03 05:49:27;;;;;;;59.60;20.47;;;-2.80;99.90;;;;;;4927474;29;20198;-66
2020/12/03 05:52:18;;;;;;;70.07;24.23;;;-2.80;99.90;;;;;;4927101;29;20206;-66
2020/12/03 05:55:03;;;;;;;76.53;24.83;;;-2.70;99.90;;;;;;4932497;29;20229;-67
2020/12/03 05:57:34;;;;;;;73.10;24.63;;;-2.70;99.90;;;;;;4932715;29;20300;-67
2020/12/03 06:00:19;;;;;;;66.43;22.20;;;-2.70;99.90;;;;;;4920364;29;20198;-67
2020/12/03 06:03:12;;;;;;;66.83;22.70;;;-2.60;99.90;;;;;;4944411;28;20644;-67
2020/12/03 06:05:46;;;;;;;63.67;22.07;;;-2.60;99.90;;;;;;4950148;28;20639;-67
2020/12/03 06:08:27;;;;;;;67.27;23.63;;;-2.50;99.90;;;;;;4951366;29;20237;-67
2020/12/03 06:11:14;;;;;;;63.97;21.97;;;-2.50;99.90;;;;;;4954055;28;20197;-67
2020/12/03 06:13:55;;;;;;;57.53;20.63;;;-2.50;99.90;;;;;;4960730;28;20200;-67
2020/12/03 06:16:34;;;;;;;76.93;26.17;;;-2.50;99.90;;;;;;4951794;28;20201;-67
2020/12/03 06:19:34;;;;;;;83.40;29.33;;;-2.40;99.90;;;;;;4952208;28;20200;-67
2020/12/03 06:22:11;;;;;;;85.83;27.63;;;-2.50;99.90;;;;;;4945154;29;20284;-67
2020/12/03 06:25:17;;;;;;;85.80;26.70;;;-2.40;99.90;;;;;;4947720;29;20256;-67
2020/12/03 06:28:02;;;;;;;81.43;27.17;;;-2.50;99.90;;;;;;4951037;29;20208;-67
2020/12/03 06:30:33;;;;;;;89.90;30.13;;;-2.60;99.90;;;;;;4952575;28;20683;-67
2020/12/03 06:33:19;;;;;;;92.90;30.90;;;-2.60;99.90;;;;;;4941986;29;20193;-67
2020/12/03 06:35:54;;;;;;;75.70;26.57;;;-2.70;99.90;;;;;;4927172;29;20218;-66
2020/12/03 06:38:32;;;;;;;94.93;29.60;;;-2.70;99.90;;;;;;4929423;29;20224;-67
2020/12/03 06:41:19;;;;;;;100.87;31.63;;;-2.60;99.90;;;;;;4928022;29;20217;-66
2020/12/03 06:43:52;;;;;;;112.87;33.27;;;-2.60;99.90;;;;;;4927273;29;20208;-67
2020/12/03 06:46:41;;;;;;;91.30;29.43;;;-2.60;99.90;;;;;;4944468;29;20304;-66
2020/12/03 06:49:40;;;;;;;104.30;33.57;;;-2.60;99.90;;;;;;4951277;29;20193;-66
2020/12/03 06:52:54;;;;;;;110.37;34.03;;;-2.60;99.90;;;;;;4950606;29;20223;-67
2020/12/03 06:55:45;;;;;;;103.33;33.07;;;-2.50;99.90;;;;;;4820396;29;20253;-67
2020/12/03 06:58:44;;;;;;;102.27;32.63;;;-2.50;99.90;;;;;;4815294;29;20215;-66
2020/12/03 07:01:51;;;;;;;102.50;33.80;;;-2.50;99.90;;;;;;4801320;29;20211;-65
2020/12/03 07:04:54;;;;;;;93.97;30.07;;;-2.50;99.90;;;;;;4797614;29;20246;-65
2020/12/03 07:07:54;;;;;;;99.53;30.20;;;-2.40;99.90;;;;;;4801305;29;20238;-65
2020/12/03 07:11:08;;;;;;;107.43;34.10;;;-2.40;99.90;;;;;;4802141;29;20222;-65
2020/12/03 07:14:25;;;;;;;104.87;33.77;;;-2.40;99.90;;;;;;4767637;29;20207;-65
2020/12/03 07:17:22;;;;;;;103.03;30.67;;;-2.40;99.90;;;;;;4769519;30;20222;-66
2020/12/03 07:20:39;;;;;;;102.63;34.70;;;-2.30;99.90;;;;;;4763199;30;20216;-66
2020/12/03 07:23:10;;;;;;;84.13;29.30;;;-2.30;99.90;;;;;;4765395;30;20533;-66
2020/12/03 07:25:40;;;;;;;85.10;28.90;;;-2.20;99.90;;;;;;4764386;30;20211;-66
2020/12/03 07:28:22;;;;;;;99.23;33.57;;;-2.10;99.90;;;;;;4763838;30;20247;-66
2020/12/03 07:30:55;;;;;;;91.57;28.97;;;-2.10;99.90;;;;;;4819570;29;20296;-67
2020/12/03 08:52:56;;;;;;;97.47;36.00;;;-1.80;99.90;;;;;;5019034;28;20563;-68
2020/12/03 08:55:30;;;;;;;94.80;35.47;;;0.60;99.90;;;;;;5012172;28;20277;-71
2020/12/03 08:58:08;;;;;;;86.87;32.23;;;0.70;99.90;;;;;;5019601;28;20182;-71
2020/12/03 09:00:41;;;;;;;77.40;29.80;;;0.70;99.90;;;;;;5028177;27;20214;-70
2020/12/03 09:03:12;;;;;;;86.33;30.83;;;0.70;99.90;;;;;;5034319;27;20226;-69
2020/12/03 09:05:41;;;;;;;93.90;35.40;;;0.70;99.90;;;;;;4990414;28;20643;-69
2020/12/03 09:08:18;;;;;;;88.13;32.27;;;0.80;99.90;;;;;;5011607;28;20230;-71
2020/12/03 09:10:46;;;;;;;93.63;31.97;;;0.70;99.90;;;;;;5020431;28;20991;-70
2020/12/03 09:13:19;;;;;;;86.60;30.30;;;0.70;99.90;;;;;;4995319;28;20203;-70
2020/12/03 09:15:47;;;;;;;79.03;28.67;;;0.60;99.90;;;;;;4985016;28;20209;-67
2020/12/03 09:18:14;;;;;;;70.13;26.57;;;0.50;99.90;;;;;;4997521;28;20244;-66
2020/12/03 09:20:45;;;;;;;74.37;27.20;;;0.60;99.90;;;;;;5011481;28;20218;-65
2020/12/03 09:23:23;;;;;;;65.23;24.53;;;0.60;99.90;;;;;;5019231;28;20337;-67
2020/12/03 09:25:50;;;;;;;59.37;23.43;;;0.60;99.90;;;;;;4974104;28;20206;-66
2020/12/03 09:28:18;;;;;;;62.33;23.50;;;0.70;99.90;;;;;;5014182;28;20593;-66
2020/12/03 09:30:56;;;;;;;65.27;24.37;;;0.70;99.90;;;;;;4998334;28;20206;-66
2020/12/03 09:33:26;;;;;;;62.37;23.53;;;0.60;99.90;;;;;;4939230;28;20285;-66
2020/12/03 09:35:53;;;;;;;56.13;21.17;;;0.70;99.90;;;;;;5023834;28;20208;-65
2020/12/03 09:38:21;;;;;;;52.00;20.40;;;0.70;99.90;;;;;;5013202;28;20243;-66
2020/12/03 09:41:04;;;;;;;;;;;;;;;;;;;;;
2020/12/03 09:43:38;;;;;;;49.00;18.53;;;0.80;99.90;;;;;;4982825;28;20620;-67
2020/12/03 09:46:07;;;;;;;50.50;18.93;;;0.80;99.90;;;;;;5022598;28;20686;-67
2020/12/03 09:48:34;;;;;;;42.90;17.63;;;0.80;99.90;;;;;;4993736;28;20226;-67
2020/12/03 09:51:04;;;;;;;54.93;20.47;;;0.80;99.90;;;;;;5000785;28;20239;-66
2020/12/03 09:53:36;;;;;;;46.97;17.90;;;0.90;99.90;;;;;;4974909;28;20288;-67
2020/12/03 09:56:08;;;;;;;50.53;20.10;;;0.90;99.90;;;;;;5063184;28;20254;-66
2020/12/03 09:58:35;;;;;;;46.50;18.73;;;0.90;99.90;;;;;;5066218;28;20377;-66
2020/12/03 10:01:06;;;;;;;48.13;18.80;;;1.00;99.90;;;;;;5043412;28;20221;-66
2020/12/03 10:04:15;;;;;;;48.77;18.40;;;1.00;99.90;;;;;;5038233;28;20214;-67
2020/12/03 10:06:55;;;;;;;55.67;21.10;;;1.10;99.90;;;;;;5041328;28;20205;-67
2020/12/03 10:09:45;;;;;;;60.43;22.10;;;1.10;99.90;;;;;;5004867;28;20204;-66
2020/12/03 10:12:34;;;;;;;57.00;20.87;;;1.00;99.90;;;;;;5012100;28;20283;-66
2020/12/03 10:15:35;;;;;;;76.43;26.53;;;0.90;99.90;;;;;;5003722;28;20215;-67
2020/12/03 10:18:15;;;;;;;73.00;26.27;;;1.00;99.90;;;;;;4992395;28;20318;-67
2020/12/03 10:20:43;;;;;;;68.97;24.87;;;0.90;99.90;;;;;;4978633;28;20251;-69
2020/12/03 10:23:26;;;;;;;59.60;22.77;;;1.00;99.90;;;;;;4983681;28;20802;-68
2020/12/03 10:26:06;;;;;;;74.27;27.40;;;1.00;99.90;;;;;;4973896;28;20211;-66
2020/12/03 10:29:13;;;;;;;79.43;28.17;;;1.10;99.90;;;;;;4951244;28;20253;-68
2020/12/03 10:31:41;;;;;;;83.47;30.37;;;1.10;99.90;;;;;;4941504;28;20595;-67
2020/12/03 10:34:08;;;;;;;93.83;31.53;;;1.10;99.90;;;;;;4917137;29;20205;-66
2020/12/03 10:36:39;;;;;;;86.90;31.77;;;1.30;99.90;;;;;;4914032;29;20740;-66
2020/12/03 10:39:08;;;;;;;79.47;28.80;;;1.20;99.90;;;;;;4915759;29;20884;-67
2020/12/03 10:41:38;;;;;;;79.27;28.83;;;1.30;99.90;;;;;;4911223;28;20214;-66
2020/12/03 10:44:12;;;;;;;79.50;29.00;;;1.30;99.90;;;;;;4905868;28;20218;-65
2020/12/03 10:46:45;;;;;;;65.87;27.27;;;1.20;99.90;;;;;;4987340;28;20210;-66
2020/12/03 10:49:15;;;;;;;77.77;27.73;;;1.20;99.90;;;;;;4905768;28;20640;-66
2020/12/03 10:51:45;;;;;;;69.10;25.77;;;1.10;99.90;;;;;;4987554;28;20778;-67
2020/12/03 10:54:18;;;;;;;85.07;33.43;;;1.10;99.90;;;;;;5005078;28;20918;-67
2020/12/03 10:56:52;;;;;;;86.97;29.90;;;1.20;99.90;;;;;;5017800;28;20222;-67
2020/12/03 10:59:41;;;;;;;85.00;30.60;;;1.20;99.90;;;;;;4990494;28;20291;-67
2020/12/03 11:02:27;;;;;;;80.47;28.70;;;1.30;99.90;;;;;;5000512;28;20602;-67
2020/12/03 11:04:55;;;;;;;76.17;27.70;;;1.20;99.90;;;;;;5017517;28;20624;-66
2020/12/03 11:07:23;;;;;;;72.00;25.63;;;1.30;99.90;;;;;;5019316;28;20209;-66
2020/12/03 11:09:57;;;;;;;70.47;24.87;;;1.10;99.90;;;;;;5024201;28;20293;-66
2020/12/03 11:12:27;;;;;;;75.27;25.57;;;1.40;99.90;;;;;;5022768;28;20234;-66
2020/12/03 11:14:54;;;;;;;84.47;28.97;;;1.40;99.90;;;;;;5020802;28;20209;-67
2020/12/03 11:17:47;;;;;;;73.50;26.97;;;1.40;99.90;;;;;;5022540;28;20585;-67
2020/12/03 11:20:22;;;;;;;72.90;24.87;;;1.40;99.90;;;;;;5021847;28;20211;-67
2020/12/03 11:23:05;;;;;;;64.57;23.33;;;1.40;99.90;;;;;;4982176;28;20231;-67
2020/12/03 11:25:33;;;;;;;73.60;25.87;;;1.50;99.90;;;;;;4956815;28;20231;-66
2020/12/03 11:28:14;;;;;;;65.03;24.27;;;1.50;99.90;;;;;;4966284;28;20506;-67
2020/12/03 11:30:55;;;;;;;66.80;26.43;;;1.50;99.90;;;;;;4965152;28;20219;-67
2020/12/03 11:33:29;;;;;;;64.77;24.57;;;1.50;99.90;;;;;;4965035;28;20287;-67
2020/12/03 11:36:15;;;;;;;80.85;31.60;;;1.50;99.90;;;;;;4970976;28;20657;-68
2020/12/03 11:38:52;;;;;;;66.77;27.00;;;1.40;99.90;;;;;;4975355;28;20290;-67
2020/12/03 11:41:30;;;;;;;88.30;33.50;;;1.40;99.90;;;;;;4925321;28;20700;-67
2020/12/03 11:44:18;;;;;;;88.40;32.30;;;1.40;99.90;;;;;;4959554;28;20226;-67
2020/12/03 11:49:32;;;;;;;79.50;29.30;;;1.30;99.90;;;;;;4981804;28;20213;-67
2020/12/03 11:52:16;;;;;;;68.50;26.13;;;1.30;99.90;;;;;;4947794;28;20238;-68
2020/12/03 11:54:45;;;;;;;63.63;24.83;;;1.50;99.90;;;;;;4918969;28;20209;-68
2020/12/03 11:57:17;;;;;;;67.53;24.70;;;1.50;99.90;;;;;;4970037;28;20209;-68
2020/12/03 11:59:51;;;;;;;74.33;27.73;;;1.60;99.90;;;;;;4953211;28;20701;-68
2020/12/03 12:05:09;;;;;;;73.83;28.40;;;1.60;99.90;;;;;;4988677;28;20212;-67
2020/12/03 12:07:39;;;;;;;93.00;32.90;;;1.60;99.90;;;;;;4946409;28;20228;-67
2020/12/03 12:10:21;;;;;;;90.33;30.80;;;1.60;99.90;;;;;;4982084;28;20389;-67
2020/12/03 12:12:54;;;;;;;104.20;35.93;;;1.60;99.90;;;;;;5013503;28;20870;-68
2020/12/03 12:15:23;;;;;;;99.97;32.47;;;1.50;99.90;;;;;;5003598;28;20286;-67
2020/12/03 12:18:27;;;;;;;86.00;31.07;;;1.50;99.90;;;;;;5022831;28;20194;-67
2020/12/03 12:20:54;;;;;;;85.33;30.93;;;1.50;99.90;;;;;;5039990;28;20205;-67
2020/12/03 12:23:21;;;;;;;83.60;31.13;;;1.50;99.90;;;;;;5050738;28;20239;-68
2020/12/03 12:25:47;;;;;;;102.73;35.90;;;1.50;99.90;;;;;;5053010;28;20688;-68
2020/12/03 12:28:17;;;;;;;117.70;39.87;;;1.50;99.90;;;;;;5080611;28;20231;-67
2020/12/03 12:30:48;;;;;;;107.37;37.43;;;1.40;99.90;;;;;;5085438;28;20208;-68
2020/12/03 12:33:15;;;;;;;121.90;40.47;;;1.30;99.90;;;;;;5040458;28;20712;-67
2020/12/03 12:35:42;;;;;;;111.97;39.23;;;1.30;99.90;;;;;;5083141;28;20215;-67
2020/12/03 12:38:11;;;;;;;96.13;33.97;;;1.30;99.90;;;;;;5091183;28;20200;-68
2020/12/03 12:40:40;;;;;;;103.50;34.97;;;1.30;99.90;;;;;;5049975;28;20236;-67
2020/12/03 12:43:07;;;;;;;119.70;38.83;;;1.30;99.90;;;;;;5044725;28;20227;-66
2020/12/03 12:45:33;;;;;;;96.23;34.63;;;1.30;99.90;;;;;;5049660;28;20550;-67
2020/12/03 12:48:04;;;;;;;94.23;33.60;;;1.30;99.90;;;;;;5039099;28;20280;-67
2020/12/03 12:50:31;;;;;;;111.57;36.47;;;2.40;99.90;;;;;;5093866;28;20224;-68
2020/12/03 12:52:57;;;;;;;96.23;33.53;;;1.30;99.90;;;;;;5022881;28;20226;-68
2020/12/03 12:55:24;;;;;;;104.47;35.87;;;1.30;99.90;;;;;;4983828;28;20207;-67
2020/12/03 12:57:51;;;;;;;104.07;36.67;;;1.30;99.90;;;;;;4997886;28;20730;-67
2020/12/03 13:00:20;;;;;;;100.43;34.43;;;1.30;99.90;;;;;;4999783;28;20213;-67
2020/12/03 13:02:47;;;;;;;110.83;36.70;;;1.30;99.90;;;;;;4997949;28;20223;-67
2020/12/03 13:05:14;;;;;;;121.23;39.30;;;1.30;99.90;;;;;;4997576;28;20211;-68
2020/12/03 13:07:43;;;;;;;118.93;39.53;;;1.30;99.90;;;;;;4990893;28;20195;-67
2020/12/03 13:10:13;;;;;;;112.93;38.80;;;1.30;99.90;;;;;;4994665;28;20208;-67
2020/12/03 13:12:40;;;;;;;100.27;36.23;;;1.30;99.90;;;;;;5003464;28;20217;-66
2020/12/03 13:15:07;;;;;;;102.47;36.63;;;1.30;99.90;;;;;;5018038;28;20280;-67
2020/12/03 13:17:39;;;;;;;117.30;39.03;;;1.30;99.90;;;;;;5017059;28;20199;-67
2020/12/03 13:20:06;;;;;;;130.83;40.73;;;1.30;99.90;;;;;;5002479;28;20230;-67
2020/12/03 13:22:38;;;;;;;135.23;41.73;;;1.30;99.90;;;;;;4947443;28;21240;-66
2020/12/03 13:25:05;;;;;;;124.63;41.03;;;1.40;99.90;;;;;;4928301;28;20217;-68
2020/12/03 13:27:35;;;;;;;125.27;42.37;;;1.40;99.90;;;;;;4954347;28;20293;-67
2020/12/03 13:30:02;;;;;;;110.70;39.43;;;1.40;99.90;;;;;;4982725;28;20211;-66
2020/12/03 13:32:31;;;;;;;119.20;38.53;;;1.40;99.90;;;;;;4943847;28;20218;-66
2020/12/03 13:34:57;;;;;;;125.73;39.03;;;1.40;99.90;;;;;;4925175;28;20690;-67
2020/12/03 13:37:24;;;;;;;123.80;39.37;;;1.50;99.90;;;;;;4959687;28;20294;-67
2020/12/03 13:39:52;;;;;;;125.60;37.47;;;1.60;99.90;;;;;;4953742;28;20196;-67
2020/12/03 13:42:18;;;;;;;121.77;39.10;;;1.60;99.90;;;;;;4982432;28;20276;-66
2020/12/03 13:44:45;;;;;;;121.47;38.60;;;1.60;99.90;;;;;;4981259;28;20243;-67
2020/12/03 13:47:12;;;;;;;127.50;38.63;;;1.70;99.90;;;;;;4984875;28;20204;-68
2020/12/03 13:49:42;;;;;;;129.27;40.13;;;1.70;99.90;;;;;;4947346;28;20473;-67
2020/12/03 13:54:55;;;;;;;117.27;35.87;;;1.70;99.90;;;;;;4944516;29;20673;-66
2020/12/03 13:57:22;;;;;;;119.63;37.27;;;1.70;99.90;;;;;;4942317;28;20311;-66
2020/12/03 13:59:50;;;;;;;111.30;37.87;;;1.70;99.90;;;;;;4989619;28;20204;-67
2020/12/03 14:03:15;;;;;;;;;;;;;;;;;;;;;
2020/12/03 14:06:17;;;;;;;93.73;33.17;;;1.60;99.90;;;;;;4843917;29;20290;-68
2020/12/03 14:08:45;;;;;;;82.77;32.33;;;1.70;99.90;;;;;;4848288;29;20215;-67
2020/12/03 14:11:16;;;;;;;90.27;32.87;;;1.70;99.90;;;;;;4846583;29;20274;-68
2020/12/03 14:13:46;;;;;;;90.53;33.90;;;1.80;99.90;;;;;;4825129;29;20205;-67
2020/12/03 14:16:15;;;;;;;96.37;34.57;;;1.80;99.90;;;;;;4834308;29;20217;-67
2020/12/03 14:18:42;;;;;;;88.50;32.90;;;1.80;99.90;;;;;;4834124;29;20793;-66
2020/12/03 14:21:12;;;;;;;100.80;35.37;;;1.90;99.90;;;;;;4833206;29;20235;-67
2020/12/03 14:23:38;;;;;;;83.73;32.07;;;1.80;99.90;;;;;;4831053;29;20232;-68
2020/12/03 14:26:05;;;;;;;91.23;31.13;;;1.90;99.90;;;;;;4834653;29;20213;-67
2020/12/03 14:28:37;;;;;;;79.10;28.00;;;1.90;99.90;;;;;;4836508;29;20288;-68